Time;durP1;ratioP1;P1;durP2;ratioP2;P2;SDS_P1;SDS_P2;PMS_P1;PMS_P2;Temp;Humidity;BMP_temperature;BMP_pressure;BME280_temperature;BME280_humidity;BME280_pressure;Samples;Min_cycle;Max_cycle;Signal;HPM_P1;HPM_P2
2021/09/15 00:01:55;;;;;;;1.73;0.98;;;;;;;;;;5063409;28;20113;-79
2021/09/15 00:04:21;;;;;;;1.58;0.80;;;;;;;;;;5063498;28;20086;-79
2021/09/15 00:06:48;;;;;;;3.00;0.95;;;;;;;;;;5066074;28;20061;-79
2021/09/15 00:09:14;;;;;;;3.28;1.23;;;;;;;;;;5062004;28;20060;-79
2021/09/15 00:11:41;;;;;;;1.80;1.00;;;;;;;;;;5067812;28;20055;-78
2021/09/15 00:14:07;;;;;;;1.95;1.10;;;;;;;;;;5044048;28;20057;-78
2021/09/15 00:16:34;;;;;;;1.70;0.90;;;;;;;;;;5074163;28;20064;-78
2021/09/15 00:19:00;;;;;;;2.33;1.10;;;;;;;;;;5086710;28;20496;-78
2021/09/15 00:21:28;;;;;;;2.05;1.20;;;;;;;;;;5082329;28;20429;-78
2021/09/15 00:23:54;;;;;;;2.20;1.10;;;;;;;;;;5078207;28;20047;-77
2021/09/15 00:26:21;;;;;;;1.73;1.00;;;;;;;;;;5073223;28;20195;-77
2021/09/15 00:28:47;;;;;;;1.85;0.90;;;;;;;;;;5066156;28;20115;-77
2021/09/15 00:31:14;;;;;;;1.75;1.10;;;;;;;;;;5075766;28;20108;-77
2021/09/15 00:33:41;;;;;;;3.13;1.63;;;;;;;;;;5075311;28;20024;-78
2021/09/15 00:36:08;;;;;;;2.03;1.15;;;;;;;;;;5068441;28;20670;-78
2021/09/15 00:38:35;;;;;;;1.70;0.90;;;;;;;;;;5080280;28;20156;-78
2021/09/15 00:41:01;;;;;;;1.88;1.10;;;;;;;;;;5078546;28;20055;-75
2021/09/15 00:43:27;;;;;;;2.97;0.85;;;;;;;;;;5068685;28;20139;-77
2021/09/15 00:45:56;;;;;;;2.53;1.10;;;;;;;;;;5081659;28;20424;-77
2021/09/15 00:48:23;;;;;;;1.85;1.08;;;;;;;;;;5078294;28;20048;-78
2021/09/15 00:50:49;;;;;;;2.47;1.20;;;;;;;;;;5084446;28;20064;-78
2021/09/15 00:53:16;;;;;;;1.92;1.02;;;;;;;;;;5082209;28;20062;-77
2021/09/15 00:55:42;;;;;;;2.65;0.95;;;;;;;;;;5080534;28;20524;-78
2021/09/15 00:58:08;;;;;;;3.55;1.15;;;;;;;;;;5077685;28;20063;-77
2021/09/15 01:00:35;;;;;;;2.40;1.00;;;;;;;;;;5082964;28;20032;-77
2021/09/15 01:03:01;;;;;;;2.60;1.10;;;;;;;;;;5081482;28;20115;-75
2021/09/15 01:05:28;;;;;;;2.05;1.13;;;;;;;;;;5083336;28;20059;-78
2021/09/15 01:07:55;;;;;;;3.08;1.35;;;;;;;;;;5082831;28;20377;-77
2021/09/15 01:10:22;;;;;;;2.67;0.90;;;;;;;;;;5083457;28;25917;-77
2021/09/15 01:12:48;;;;;;;1.73;0.80;;;;;;;;;;5069793;28;20135;-77
2021/09/15 01:15:14;;;;;;;1.63;1.02;;;;;;;;;;5063368;28;20056;-78
2021/09/15 01:17:41;;;;;;;2.33;1.08;;;;;;;;;;5056074;28;20056;-78
2021/09/15 01:20:07;;;;;;;3.63;1.23;;;;;;;;;;5061919;28;20084;-77
2021/09/15 01:22:34;;;;;;;2.35;1.15;;;;;;;;;;5056801;28;20543;-78
2021/09/15 01:25:00;;;;;;;2.70;1.00;;;;;;;;;;5080706;28;20075;-78
2021/09/15 01:27:27;;;;;;;2.30;1.20;;;;;;;;;;5073027;28;20532;-78
2021/09/15 01:29:53;;;;;;;2.15;1.02;;;;;;;;;;5073125;28;20048;-78
2021/09/15 01:32:19;;;;;;;2.67;1.10;;;;;;;;;;5069014;28;20056;-78
2021/09/15 01:34:52;;;;;;;2.40;1.30;;;;;;;;;;5061857;28;20059;-78
2021/09/15 01:37:19;;;;;;;2.30;1.00;;;;;;;;;;5072689;28;20624;-77
2021/09/15 01:39:45;;;;;;;2.33;1.13;;;;;;;;;;5076685;28;20097;-76
2021/09/15 01:42:12;;;;;;;2.20;1.15;;;;;;;;;;5063110;28;20126;-77
2021/09/15 01:44:43;;;;;;;1.65;0.95;;;;;;;;;;5064660;28;20495;-77
2021/09/15 01:47:10;;;;;;;1.85;1.20;;;;;;;;;;5060429;28;20060;-78
2021/09/15 01:49:37;;;;;;;2.78;1.20;;;;;;;;;;5075587;28;20693;-77
2021/09/15 01:52:05;;;;;;;2.15;1.08;;;;;;;;;;5064780;28;20061;-77
2021/09/15 01:54:31;;;;;;;2.20;1.20;;;;;;;;;;5074629;28;20192;-78
2021/09/15 01:56:58;;;;;;;2.05;1.00;;;;;;;;;;5075343;28;20056;-78
2021/09/15 01:59:24;;;;;;;1.73;0.98;;;;;;;;;;5064790;28;20070;-78
2021/09/15 02:01:51;;;;;;;2.15;1.08;;;;;;;;;;5065537;28;20056;-77
2021/09/15 02:04:17;;;;;;;2.35;1.00;;;;;;;;;;5070104;28;20131;-78
2021/09/15 02:06:44;;;;;;;1.70;1.05;;;;;;;;;;5059282;28;20060;-77
2021/09/15 02:09:10;;;;;;;1.95;1.08;;;;;;;;;;5072428;28;20060;-77
2021/09/15 02:11:37;;;;;;;2.92;1.27;;;;;;;;;;5084859;28;20060;-77
2021/09/15 02:14:04;;;;;;;2.63;1.27;;;;;;;;;;5084719;28;20068;-77
2021/09/15 02:16:30;;;;;;;2.88;1.00;;;;;;;;;;5066711;28;20044;-77
2021/09/15 02:18:57;;;;;;;2.17;1.10;;;;;;;;;;5064334;28;20060;-78
2021/09/15 02:21:23;;;;;;;1.92;0.95;;;;;;;;;;5061896;28;20442;-77
2021/09/15 02:23:49;;;;;;;2.92;1.10;;;;;;;;;;5077712;28;20078;-78
2021/09/15 02:26:16;;;;;;;3.90;1.40;;;;;;;;;;5066816;28;20151;-78
2021/09/15 02:28:42;;;;;;;2.83;1.10;;;;;;;;;;5077711;28;20042;-78
2021/09/15 02:31:12;;;;;;;1.20;0.82;;;;;;;;;;5077052;28;20116;-78
2021/09/15 02:33:39;;;;;;;2.13;1.20;;;;;;;;;;5080808;28;20032;-78
2021/09/15 02:36:05;;;;;;;4.00;1.30;;;;;;;;;;5082111;28;20053;-78
2021/09/15 02:38:32;;;;;;;2.95;1.30;;;;;;;;;;5085328;28;20063;-78
2021/09/15 02:40:58;;;;;;;2.88;1.20;;;;;;;;;;5079356;28;20539;-78
2021/09/15 02:43:24;;;;;;;3.05;1.20;;;;;;;;;;5079430;28;20074;-79
2021/09/15 02:45:51;;;;;;;3.05;1.35;;;;;;;;;;5081973;28;20551;-78
2021/09/15 02:48:17;;;;;;;1.73;0.85;;;;;;;;;;5079391;28;20070;-77
2021/09/15 02:50:43;;;;;;;2.00;1.02;;;;;;;;;;5067077;28;20056;-77
2021/09/15 02:53:10;;;;;;;2.45;1.00;;;;;;;;;;5064495;28;20449;-78
2021/09/15 02:55:36;;;;;;;2.65;1.20;;;;;;;;;;5064362;28;20101;-78
2021/09/15 02:58:04;;;;;;;2.05;1.20;;;;;;;;;;5078439;28;20064;-78
2021/09/15 03:00:30;;;;;;;1.92;1.17;;;;;;;;;;5064085;28;20056;-78
2021/09/15 03:02:57;;;;;;;2.00;1.23;;;;;;;;;;5071518;28;20075;-78
2021/09/15 03:05:23;;;;;;;1.70;1.13;;;;;;;;;;5076301;28;20609;-78
2021/09/15 03:07:50;;;;;;;1.90;1.20;;;;;;;;;;5076508;28;20063;-78
2021/09/15 03:10:16;;;;;;;1.50;1.10;;;;;;;;;;5078372;28;20055;-79
2021/09/15 03:12:43;;;;;;;1.67;1.00;;;;;;;;;;5085828;28;20037;-79
2021/09/15 03:15:09;;;;;;;2.92;1.33;;;;;;;;;;5085735;28;20459;-78
2021/09/15 03:17:36;;;;;;;1.90;1.23;;;;;;;;;;5087409;28;20436;-82
2021/09/15 03:20:03;;;;;;;2.88;1.10;;;;;;;;;;5085849;28;20052;-76
2021/09/15 03:22:30;;;;;;;3.85;1.15;;;;;;;;;;5083936;28;20073;-79
2021/09/15 03:24:56;;;;;;;2.65;1.15;;;;;;;;;;5086420;28;20028;-78
2021/09/15 03:27:22;;;;;;;1.65;1.13;;;;;;;;;;5084844;28;20052;-78
2021/09/15 03:29:49;;;;;;;2.05;1.15;;;;;;;;;;5085934;28;20063;-78
2021/09/15 03:32:15;;;;;;;2.15;1.10;;;;;;;;;;5083880;28;20033;-78
2021/09/15 03:34:42;;;;;;;2.30;1.33;;;;;;;;;;5077516;28;20052;-78
2021/09/15 03:37:08;;;;;;;2.17;1.10;;;;;;;;;;5084308;28;20046;-78
2021/09/15 03:39:35;;;;;;;2.30;1.10;;;;;;;;;;5085447;28;20055;-79
2021/09/15 03:42:01;;;;;;;3.13;1.30;;;;;;;;;;5083500;28;20059;-79
2021/09/15 03:44:28;;;;;;;3.10;1.30;;;;;;;;;;5070789;28;20063;-79
2021/09/15 03:46:55;;;;;;;1.70;1.15;;;;;;;;;;5075866;28;20060;-79
2021/09/15 03:49:22;;;;;;;1.90;1.00;;;;;;;;;;5071710;28;20028;-79
2021/09/15 03:51:49;;;;;;;2.50;1.17;;;;;;;;;;5063211;28;20064;-79
2021/09/15 03:54:16;;;;;;;1.92;1.20;;;;;;;;;;5063206;28;20056;-78
2021/09/15 03:56:42;;;;;;;2.00;1.10;;;;;;;;;;5077712;28;20063;-79
2021/09/15 03:59:09;;;;;;;1.45;1.00;;;;;;;;;;5074443;28;20449;-78
2021/09/15 04:01:35;;;;;;;2.83;1.25;;;;;;;;;;5085557;28;20055;-79
2021/09/15 04:04:01;;;;;;;4.53;1.25;;;;;;;;;;5070505;28;20064;-78
2021/09/15 04:06:28;;;;;;;1.85;1.27;;;;;;;;;;5044255;28;20064;-78
2021/09/15 04:08:54;;;;;;;2.22;1.27;;;;;;;;;;5064032;28;20101;-78
2021/09/15 04:11:21;;;;;;;1.63;1.15;;;;;;;;;;5081261;28;20056;-78
2021/09/15 04:13:47;;;;;;;1.70;1.10;;;;;;;;;;5084037;28;20125;-78
2021/09/15 04:16:13;;;;;;;2.03;1.20;;;;;;;;;;5083858;28;20072;-78
2021/09/15 04:18:40;;;;;;;2.40;1.30;;;;;;;;;;5067237;28;20129;-79
2021/09/15 04:21:06;;;;;;;1.92;1.25;;;;;;;;;;5084559;28;20076;-78
2021/09/15 04:31:49;;;;;;;2.17;1.20;;;;;;;;;;5081051;28;20495;-79
2021/09/15 04:34:15;;;;;;;2.58;1.40;;;;;;;;;;5074662;28;20094;-78
2021/09/15 04:36:41;;;;;;;3.17;1.17;;;;;;;;;;5082420;28;20440;-78
2021/09/15 04:39:08;;;;;;;2.20;1.33;;;;;;;;;;5083111;28;20515;-78
2021/09/15 04:41:34;;;;;;;3.17;1.38;;;;;;;;;;5076240;28;20074;-79
2021/09/15 04:44:01;;;;;;;2.28;1.20;;;;;;;;;;5067880;28;20063;-79
2021/09/15 04:46:27;;;;;;;1.75;1.27;;;;;;;;;;5068258;28;20063;-79
2021/09/15 04:48:54;;;;;;;2.30;1.35;;;;;;;;;;5076297;28;20025;-79
2021/09/15 04:51:21;;;;;;;1.90;1.00;;;;;;;;;;5073047;28;20086;-79
2021/09/15 04:53:47;;;;;;;2.60;1.10;;;;;;;;;;5085282;28;20516;-79
2021/09/15 04:56:14;;;;;;;3.83;1.58;;;;;;;;;;5083644;28;20056;-80
2021/09/15 04:58:40;;;;;;;4.38;1.20;;;;;;;;;;5082333;28;20496;-79
2021/09/15 05:01:07;;;;;;;5.45;1.60;;;;;;;;;;5078722;28;20072;-78
2021/09/15 05:03:33;;;;;;;3.33;1.70;;;;;;;;;;5071689;28;20075;-79
2021/09/15 05:05:59;;;;;;;2.63;1.50;;;;;;;;;;5068984;28;20069;-79
2021/09/15 05:08:26;;;;;;;3.28;1.60;;;;;;;;;;5067875;28;20051;-79
2021/09/15 05:10:53;;;;;;;4.55;1.70;;;;;;;;;;5084492;28;20618;-78
2021/09/15 05:13:19;;;;;;;2.28;1.50;;;;;;;;;;5082671;28;20682;-78
2021/09/15 05:15:45;;;;;;;2.92;1.33;;;;;;;;;;5052134;28;20086;-78
2021/09/15 05:18:12;;;;;;;3.33;1.67;;;;;;;;;;5072953;28;20671;-78
2021/09/15 05:20:38;;;;;;;6.45;1.48;;;;;;;;;;5069284;28;20056;-78
2021/09/15 05:23:05;;;;;;;2.70;1.60;;;;;;;;;;5063680;28;20541;-78
2021/09/15 05:25:31;;;;;;;3.30;1.50;;;;;;;;;;5065445;28;20059;-78
2021/09/15 05:27:57;;;;;;;4.30;1.80;;;;;;;;;;5080684;28;20063;-78
2021/09/15 05:30:24;;;;;;;2.67;1.33;;;;;;;;;;5075603;28;20601;-78
2021/09/15 05:32:50;;;;;;;3.53;1.27;;;;;;;;;;5076638;28;20417;-78
2021/09/15 05:35:17;;;;;;;4.00;1.60;;;;;;;;;;5069675;28;20052;-79
2021/09/15 05:37:44;;;;;;;3.03;1.40;;;;;;;;;;5064405;28;20033;-79
2021/09/15 05:40:11;;;;;;;4.15;1.58;;;;;;;;;;5055581;28;20174;-79
2021/09/15 05:42:38;;;;;;;3.47;1.70;;;;;;;;;;5067579;28;20102;-78
2021/09/15 05:45:05;;;;;;;4.40;1.48;;;;;;;;;;5084710;28;20062;-78
2021/09/15 05:47:32;;;;;;;5.30;1.60;;;;;;;;;;5073062;28;20516;-78
2021/09/15 05:49:59;;;;;;;3.90;1.90;;;;;;;;;;5075956;28;20068;-78
2021/09/15 05:52:25;;;;;;;3.53;1.60;;;;;;;;;;5081090;28;20025;-78
2021/09/15 05:54:52;;;;;;;2.45;1.50;;;;;;;;;;5066229;28;20053;-77
2021/09/15 05:57:19;;;;;;;3.40;1.45;;;;;;;;;;5071185;28;20067;-77
2021/09/15 05:59:45;;;;;;;2.75;1.33;;;;;;;;;;5071968;28;20063;-77
2021/09/15 06:02:11;;;;;;;2.80;1.63;;;;;;;;;;5061529;28;20781;-77
2021/09/15 06:04:38;;;;;;;2.72;1.40;;;;;;;;;;5079627;28;20126;-78
2021/09/15 06:07:04;;;;;;;3.75;1.60;;;;;;;;;;5063865;28;20683;-77
2021/09/15 06:09:31;;;;;;;3.38;1.45;;;;;;;;;;5059161;28;20036;-79
2021/09/15 06:11:57;;;;;;;2.25;1.20;;;;;;;;;;5072239;28;20063;-77
2021/09/15 06:14:24;;;;;;;1.85;1.30;;;;;;;;;;5083252;28;20812;-78
2021/09/15 06:16:50;;;;;;;5.82;1.20;;;;;;;;;;5082751;28;20097;-77
2021/09/15 06:19:16;;;;;;;4.65;1.45;;;;;;;;;;5082973;28;20055;-77
2021/09/15 06:21:43;;;;;;;1.70;0.98;;;;;;;;;;5085918;28;20064;-77
2021/09/15 06:24:09;;;;;;;2.03;1.20;;;;;;;;;;5084431;28;20067;-77
2021/09/15 06:26:37;;;;;;;2.58;1.30;;;;;;;;;;5083374;28;20785;-77
2021/09/15 06:29:03;;;;;;;2.38;1.10;;;;;;;;;;5082042;28;20143;-75
2021/09/15 06:31:30;;;;;;;2.40;1.20;;;;;;;;;;5084979;28;20051;-78
2021/09/15 06:33:57;;;;;;;2.08;1.35;;;;;;;;;;5074923;28;20160;-78
2021/09/15 06:36:23;;;;;;;2.35;1.30;;;;;;;;;;5075869;28;20078;-77
2021/09/15 06:38:50;;;;;;;2.50;1.30;;;;;;;;;;5085262;28;20091;-77
2021/09/15 06:41:16;;;;;;;2.97;1.20;;;;;;;;;;5083234;28;20075;-77
2021/09/15 06:43:44;;;;;;;3.42;1.45;;;;;;;;;;5081097;28;20039;-77
2021/09/15 06:46:11;;;;;;;2.95;1.10;;;;;;;;;;5066999;28;20057;-77
2021/09/15 06:48:37;;;;;;;3.70;1.40;;;;;;;;;;5074250;28;20052;-77
2021/09/15 06:51:03;;;;;;;3.15;1.45;;;;;;;;;;5073816;28;20040;-76
2021/09/15 06:53:30;;;;;;;3.10;1.33;;;;;;;;;;5068412;28;20569;-77
2021/09/15 06:55:56;;;;;;;2.53;1.50;;;;;;;;;;5074128;28;20052;-77
2021/09/15 06:58:23;;;;;;;2.63;1.17;;;;;;;;;;5076685;28;20064;-77
2021/09/15 07:00:50;;;;;;;3.75;1.27;;;;;;;;;;5085767;28;20526;-77
2021/09/15 07:03:17;;;;;;;2.85;1.20;;;;;;;;;;5082303;28;20052;-77
2021/09/15 07:05:44;;;;;;;2.92;1.27;;;;;;;;;;5051904;28;20072;-77
2021/09/15 07:08:10;;;;;;;3.35;1.48;;;;;;;;;;5072893;28;20056;-77
2021/09/15 07:10:39;;;;;;;1.90;1.17;;;;;;;;;;5097435;28;20118;-78
2021/09/15 07:13:06;;;;;;;2.80;1.25;;;;;;;;;;5082475;28;20068;-77
2021/09/15 07:15:33;;;;;;;2.05;1.08;;;;;;;;;;5070406;28;20044;-79
2021/09/15 07:17:59;;;;;;;2.20;1.17;;;;;;;;;;5084545;27;20079;-78
2021/09/15 07:20:25;;;;;;;2.33;1.50;;;;;;;;;;5081076;28;20068;-77
2021/09/15 07:22:52;;;;;;;2.45;1.40;;;;;;;;;;5084987;28;21030;-78
2021/09/15 07:25:18;;;;;;;2.78;1.52;;;;;;;;;;5081768;28;20060;-78
2021/09/15 07:27:45;;;;;;;2.78;1.35;;;;;;;;;;5086179;28;20082;-78
2021/09/15 07:30:12;;;;;;;2.40;1.17;;;;;;;;;;5084034;28;20033;-78
2021/09/15 07:32:42;;;;;;;2.05;1.25;;;;;;;;;;5072502;28;20103;-78
2021/09/15 07:35:13;;;;;;;2.28;1.15;;;;;;;;;;5084351;28;20040;-78
2021/09/15 07:37:40;;;;;;;2.33;1.10;;;;;;;;;;5083974;28;20042;-79
2021/09/15 07:40:07;;;;;;;1.95;1.20;;;;;;;;;;5085507;28;20063;-78
2021/09/15 07:42:33;;;;;;;1.88;1.13;;;;;;;;;;5069475;28;20068;-78
2021/09/15 07:45:00;;;;;;;1.90;1.40;;;;;;;;;;5077953;28;20051;-79
2021/09/15 07:47:26;;;;;;;2.13;1.30;;;;;;;;;;5074979;28;20109;-79
2021/09/15 07:49:53;;;;;;;2.25;1.20;;;;;;;;;;5077145;28;20044;-78
2021/09/15 07:52:19;;;;;;;1.60;1.00;;;;;;;;;;5080527;28;20075;-79
2021/09/15 07:54:45;;;;;;;2.08;1.10;;;;;;;;;;5080214;28;20105;-79
2021/09/15 07:57:12;;;;;;;2.20;1.20;;;;;;;;;;5082266;28;20581;-78
2021/09/15 07:59:39;;;;;;;2.88;1.02;;;;;;;;;;5078749;28;20526;-79
2021/09/15 08:02:05;;;;;;;4.80;1.45;;;;;;;;;;5074476;28;20071;-78
2021/09/15 08:04:31;;;;;;;2.75;1.40;;;;;;;;;;5065653;28;20052;-78
2021/09/15 08:06:58;;;;;;;2.03;1.00;;;;;;;;;;5076250;28;20805;-79
2021/09/15 08:09:24;;;;;;;1.67;1.10;;;;;;;;;;5073823;28;20089;-78
2021/09/15 08:11:51;;;;;;;2.72;1.23;;;;;;;;;;5076340;28;20530;-78
2021/09/15 08:14:17;;;;;;;2.50;1.25;;;;;;;;;;5057354;28;20491;-77
2021/09/15 08:16:43;;;;;;;1.42;1.00;;;;;;;;;;5066134;28;20074;-78
2021/09/15 08:19:10;;;;;;;2.17;1.20;;;;;;;;;;5075268;28;20060;-77
2021/09/15 08:21:36;;;;;;;3.15;1.30;;;;;;;;;;5063352;28;20060;-78
2021/09/15 08:24:03;;;;;;;1.98;1.10;;;;;;;;;;5049327;28;20064;-78
2021/09/15 08:26:29;;;;;;;2.40;1.10;;;;;;;;;;5057197;28;20063;-79
2021/09/15 08:28:56;;;;;;;2.85;1.20;;;;;;;;;;5059052;28;20052;-78
2021/09/15 08:31:22;;;;;;;1.73;1.23;;;;;;;;;;5070617;28;20067;-79
2021/09/15 08:33:48;;;;;;;2.05;1.10;;;;;;;;;;5072991;28;20122;-79
2021/09/15 08:36:15;;;;;;;3.00;1.20;;;;;;;;;;5065017;28;20060;-78
2021/09/15 08:38:41;;;;;;;1.80;0.93;;;;;;;;;;5081323;28;20120;-79
2021/09/15 08:41:08;;;;;;;2.58;1.10;;;;;;;;;;5084196;28;20070;-78
2021/09/15 08:43:36;;;;;;;2.10;1.27;;;;;;;;;;5081886;28;20056;-79
2021/09/15 08:46:05;;;;;;;1.80;1.20;;;;;;;;;;5075702;28;20479;-79
2021/09/15 08:48:35;;;;;;;2.60;1.20;;;;;;;;;;5085539;28;21225;-79
2021/09/15 08:51:01;;;;;;;1.73;0.97;;;;;;;;;;5070773;28;20056;-79
2021/09/15 08:53:28;;;;;;;2.08;1.10;;;;;;;;;;5071864;28;20055;-78
2021/09/15 08:55:54;;;;;;;1.70;1.00;;;;;;;;;;5081230;28;20078;-78
2021/09/15 08:58:21;;;;;;;1.67;1.10;;;;;;;;;;5084239;28;20071;-78
2021/09/15 09:00:47;;;;;;;1.98;1.10;;;;;;;;;;5051505;28;20811;-79
2021/09/15 09:03:14;;;;;;;2.22;1.10;;;;;;;;;;5053536;28;20056;-79
2021/09/15 09:05:40;;;;;;;1.90;1.13;;;;;;;;;;5066450;28;20037;-79
2021/09/15 09:08:22;;;;;;;3.45;1.33;;;;;;;;;;5066813;28;20060;-78
2021/09/15 09:10:50;;;;;;;1.63;0.95;;;;;;;;;;5077249;28;20137;-78
2021/09/15 09:13:18;;;;;;;2.20;1.20;;;;;;;;;;5081795;28;20100;-79
2021/09/15 09:15:44;;;;;;;2.13;1.10;;;;;;;;;;5065750;28;20060;-79
2021/09/15 09:18:11;;;;;;;1.70;1.10;;;;;;;;;;5056377;28;20043;-79
2021/09/15 09:20:37;;;;;;;1.70;1.10;;;;;;;;;;5086494;28;20529;-79
2021/09/15 09:23:09;;;;;;;2.58;1.10;;;;;;;;;;5085984;28;20085;-79
2021/09/15 09:25:37;;;;;;;1.42;1.10;;;;;;;;;;5067307;28;20032;-79
2021/09/15 09:28:16;;;;;;;2.60;1.60;;;;;;;;;;5071752;28;20112;-77
2021/09/15 09:30:42;;;;;;;2.00;1.30;;;;;;;;;;5070039;28;20060;-79
2021/09/15 09:33:09;;;;;;;1.67;1.00;;;;;;;;;;5083320;28;20051;-79
2021/09/15 09:35:39;;;;;;;2.40;1.25;;;;;;;;;;5086278;28;20052;-79
2021/09/15 09:38:16;;;;;;;1.92;1.25;;;;;;;;;;5083265;28;20113;-79
2021/09/15 09:40:53;;;;;;;1.85;1.10;;;;;;;;;;5084877;28;20059;-79
2021/09/15 09:43:19;;;;;;;1.58;1.00;;;;;;;;;;5073956;28;20499;-79
2021/09/15 09:45:46;;;;;;;1.80;1.17;;;;;;;;;;5075580;28;20161;-78
2021/09/15 09:48:27;;;;;;;2.22;1.30;;;;;;;;;;5071654;28;20696;-79
2021/09/15 09:50:54;;;;;;;2.30;1.70;;;;;;;;;;5072774;28;20056;-79
2021/09/15 09:53:21;;;;;;;2.28;1.15;;;;;;;;;;5082452;28;20171;-79
2021/09/15 09:55:49;;;;;;;2.00;1.02;;;;;;;;;;5074935;28;20430;-79
2021/09/15 09:58:22;;;;;;;1.90;1.30;;;;;;;;;;5078324;28;20055;-79
2021/09/15 10:00:49;;;;;;;1.88;1.27;;;;;;;;;;5064761;28;20115;-78
2021/09/15 10:03:16;;;;;;;1.95;1.30;;;;;;;;;;5079048;28;20036;-79
2021/09/15 10:05:44;;;;;;;1.83;1.10;;;;;;;;;;5073559;28;20121;-79
2021/09/15 10:08:11;;;;;;;1.70;1.20;;;;;;;;;;5059170;28;20072;-80
2021/09/15 10:10:43;;;;;;;2.15;1.25;;;;;;;;;;5067632;28;20433;-79
2021/09/15 10:13:10;;;;;;;2.83;1.30;;;;;;;;;;5064877;28;20117;-79
2021/09/15 10:15:44;;;;;;;2.20;1.40;;;;;;;;;;5065915;28;20060;-79
2021/09/15 10:18:11;;;;;;;2.28;1.38;;;;;;;;;;5067056;28;20057;-79
2021/09/15 10:20:38;;;;;;;1.90;1.25;;;;;;;;;;5068998;28;20060;-79
2021/09/15 10:23:24;;;;;;;2.40;1.42;;;;;;;;;;5047083;28;20037;-77
2021/09/15 10:25:51;;;;;;;1.90;1.10;;;;;;;;;;5067851;28;20060;-77
2021/09/15 10:28:17;;;;;;;1.80;1.15;;;;;;;;;;5065494;28;20137;-78
2021/09/15 10:30:48;;;;;;;1.70;1.08;;;;;;;;;;5070774;28;20055;-78
2021/09/15 10:33:35;;;;;;;2.78;1.35;;;;;;;;;;5085314;28;20207;-78
2021/09/15 10:36:01;;;;;;;2.35;1.20;;;;;;;;;;5078329;28;20047;-78
2021/09/15 10:38:46;;;;;;;1.85;1.13;;;;;;;;;;5067571;28;20069;-78
2021/09/15 10:41:31;;;;;;;3.85;1.50;;;;;;;;;;5085514;28;20047;-78
2021/09/15 10:44:04;;;;;;;1.67;1.10;;;;;;;;;;5069231;28;20193;-78
2021/09/15 10:46:31;;;;;;;2.05;1.38;;;;;;;;;;5064362;28;20414;-79
2021/09/15 10:49:17;;;;;;;2.38;1.35;;;;;;;;;;5068585;28;20490;-79
2021/09/15 10:51:43;;;;;;;2.15;1.38;;;;;;;;;;5072033;28;20514;-78
2021/09/15 10:54:28;;;;;;;2.95;1.40;;;;;;;;;;5084677;28;20102;-79
2021/09/15 10:57:14;;;;;;;2.03;1.20;;;;;;;;;;5086161;28;20080;-79
2021/09/15 11:00:00;;;;;;;1.65;1.10;;;;;;;;;;5077424;28;20059;-79
2021/09/15 11:02:31;;;;;;;1.63;1.08;;;;;;;;;;5083075;28;20133;-81
2021/09/15 11:04:58;;;;;;;1.95;1.30;;;;;;;;;;5086036;28;20059;-79
2021/09/15 11:07:43;;;;;;;2.08;1.40;;;;;;;;;;5083012;28;20048;-80
2021/09/15 11:10:14;;;;;;;1.88;1.20;;;;;;;;;;5075099;28;20052;-79
2021/09/15 11:12:44;;;;;;;2.13;1.13;;;;;;;;;;5073697;28;20058;-79
2021/09/15 11:15:29;;;;;;;2.58;1.38;;;;;;;;;;5068476;28;20067;-78
2021/09/15 11:17:55;;;;;;;2.65;1.52;;;;;;;;;;5067221;28;20028;-79
2021/09/15 11:20:26;;;;;;;2.65;1.50;;;;;;;;;;5074110;28;20109;-79
2021/09/15 11:22:53;;;;;;;2.33;1.40;;;;;;;;;;5068618;28;20083;-79
2021/09/15 11:25:20;;;;;;;2.65;1.42;;;;;;;;;;5086087;28;20053;-79
2021/09/15 11:28:05;;;;;;;2.45;1.35;;;;;;;;;;5086572;28;20052;-79
2021/09/15 11:30:32;;;;;;;2.22;1.50;;;;;;;;;;5084497;28;20406;-78
2021/09/15 11:32:59;;;;;;;2.65;1.35;;;;;;;;;;5085936;28;20078;-79
2021/09/15 11:35:25;;;;;;;2.30;1.50;;;;;;;;;;5084868;28;20067;-79
2021/09/15 11:37:52;;;;;;;2.42;1.48;;;;;;;;;;5084579;28;20032;-79
2021/09/15 11:40:27;;;;;;;3.15;1.80;;;;;;;;;;5080982;28;20107;-79
2021/09/15 11:42:54;;;;;;;1.98;1.23;;;;;;;;;;5087359;28;20043;-78
2021/09/15 11:45:22;;;;;;;2.58;1.50;;;;;;;;;;5084011;28;20534;-78
2021/09/15 11:47:49;;;;;;;3.63;1.50;;;;;;;;;;5086506;28;20052;-78
2021/09/15 11:50:17;;;;;;;2.20;1.20;;;;;;;;;;5082376;28;20060;-79
2021/09/15 11:52:46;;;;;;;2.42;1.40;;;;;;;;;;5086206;28;20048;-79
2021/09/15 11:55:15;;;;;;;2.90;1.65;;;;;;;;;;5080821;28;20068;-79
2021/09/15 11:58:02;;;;;;;2.58;1.27;;;;;;;;;;5086843;28;20029;-79
2021/09/15 12:00:30;;;;;;;2.80;1.60;;;;;;;;;;5069795;28;20145;-79
2021/09/15 12:03:01;;;;;;;2.10;1.40;;;;;;;;;;5041982;28;20114;-80
2021/09/15 12:05:27;;;;;;;2.88;1.48;;;;;;;;;;5062555;28;20056;-79
2021/09/15 12:07:54;;;;;;;2.05;1.50;;;;;;;;;;5065039;28;20068;-79
2021/09/15 12:10:21;;;;;;;2.20;1.40;;;;;;;;;;5081299;28;20055;-79
2021/09/15 12:12:48;;;;;;;2.47;1.60;;;;;;;;;;5076846;28;20064;-80
2021/09/15 12:15:15;;;;;;;2.58;1.38;;;;;;;;;;5083998;28;20432;-78
2021/09/15 12:17:52;;;;;;;2.05;1.33;;;;;;;;;;5077635;28;20474;-79
2021/09/15 12:20:37;;;;;;;3.72;1.63;;;;;;;;;;5081235;28;20327;-79
2021/09/15 12:23:03;;;;;;;3.83;1.90;;;;;;;;;;5065634;28;20503;-79
2021/09/15 12:25:30;;;;;;;2.53;1.58;;;;;;;;;;5070769;28;20492;-79
2021/09/15 12:27:59;;;;;;;4.32;1.60;;;;;;;;;;5069425;28;20116;-78
2021/09/15 12:30:26;;;;;;;2.33;1.40;;;;;;;;;;5073954;28;20534;-78
2021/09/15 12:32:57;;;;;;;2.60;1.60;;;;;;;;;;5048808;28;20114;-79
2021/09/15 12:35:25;;;;;;;2.60;1.70;;;;;;;;;;5063417;28;20048;-79
2021/09/15 12:38:08;;;;;;;2.20;1.55;;;;;;;;;;5079466;28;20381;-79
2021/09/15 12:40:35;;;;;;;2.10;1.60;;;;;;;;;;5053207;28;20044;-79
2021/09/15 12:43:01;;;;;;;2.95;1.85;;;;;;;;;;5073503;28;20059;-79
2021/09/15 12:45:28;;;;;;;2.45;1.58;;;;;;;;;;5079502;28;20562;-79
2021/09/15 12:47:55;;;;;;;2.15;1.50;;;;;;;;;;5063769;28;20060;-79
2021/09/15 12:50:23;;;;;;;2.47;1.63;;;;;;;;;;5065035;28;20088;-81
2021/09/15 12:52:51;;;;;;;2.75;1.63;;;;;;;;;;5081617;28;20120;-78
2021/09/15 12:55:21;;;;;;;2.85;1.60;;;;;;;;;;5073687;28;20118;-78
2021/09/15 12:57:57;;;;;;;2.33;1.43;;;;;;;;;;5062564;28;20115;-78
2021/09/15 13:00:25;;;;;;;2.35;1.70;;;;;;;;;;5058609;28;20449;-78
2021/09/15 13:02:52;;;;;;;1.65;1.30;;;;;;;;;;5045410;28;20200;-79
2021/09/15 13:05:18;;;;;;;2.42;1.70;;;;;;;;;;5064138;28;20113;-78
2021/09/15 13:07:45;;;;;;;2.22;1.40;;;;;;;;;;5064683;28;20068;-78
2021/09/15 13:10:12;;;;;;;2.63;1.48;;;;;;;;;;5074700;28;20071;-78
2021/09/15 13:12:38;;;;;;;2.35;1.40;;;;;;;;;;5078620;28;20109;-80
2021/09/15 13:15:05;;;;;;;2.15;1.50;;;;;;;;;;5079689;28;20059;-78
2021/09/15 13:17:32;;;;;;;2.20;1.70;;;;;;;;;;5069569;28;20727;-78
2021/09/15 13:19:58;;;;;;;1.98;1.50;;;;;;;;;;5077808;28;20102;-78
2021/09/15 13:22:25;;;;;;;2.47;1.50;;;;;;;;;;5057964;28;20166;-78
2021/09/15 13:24:52;;;;;;;2.63;1.75;;;;;;;;;;5041917;28;20068;-79
2021/09/15 13:27:20;;;;;;;2.85;1.63;;;;;;;;;;5082098;28;20109;-79
2021/09/15 13:29:46;;;;;;;2.72;1.80;;;;;;;;;;5064457;28;20074;-79
2021/09/15 13:32:13;;;;;;;2.33;1.75;;;;;;;;;;5065534;28;20052;-79
2021/09/15 13:34:40;;;;;;;3.55;1.80;;;;;;;;;;5051533;28;20052;-79
2021/09/15 13:37:07;;;;;;;2.65;1.80;;;;;;;;;;5085842;28;20056;-78
2021/09/15 13:39:34;;;;;;;2.30;1.33;;;;;;;;;;5082467;28;20060;-78
2021/09/15 13:42:01;;;;;;;2.90;1.73;;;;;;;;;;5083068;28;20059;-79
2021/09/15 13:44:27;;;;;;;2.60;1.70;;;;;;;;;;5077065;28;20422;-79
2021/09/15 13:46:54;;;;;;;2.08;1.45;;;;;;;;;;5082922;28;20046;-79
2021/09/15 13:49:21;;;;;;;2.15;1.42;;;;;;;;;;5084053;28;20024;-79
2021/09/15 13:51:48;;;;;;;2.53;1.63;;;;;;;;;;5085837;28;20034;-79
2021/09/15 13:54:15;;;;;;;2.35;1.60;;;;;;;;;;5072944;28;20051;-79
2021/09/15 13:56:41;;;;;;;3.28;1.60;;;;;;;;;;5080073;28;20165;-78
2021/09/15 13:59:08;;;;;;;2.60;1.70;;;;;;;;;;5078712;28;20401;-78
2021/09/15 14:01:34;;;;;;;2.03;1.45;;;;;;;;;;5073293;28;20093;-79
2021/09/15 14:04:00;;;;;;;2.42;1.40;;;;;;;;;;5062620;28;20721;-79
2021/09/15 14:06:27;;;;;;;2.60;1.65;;;;;;;;;;5063477;28;20491;-78
2021/09/15 14:08:54;;;;;;;2.03;1.52;;;;;;;;;;5046767;28;20400;-78
2021/09/15 14:11:20;;;;;;;2.35;1.70;;;;;;;;;;5048074;28;20100;-79
2021/09/15 14:13:46;;;;;;;2.95;1.92;;;;;;;;;;5083549;28;20060;-79
2021/09/15 14:16:13;;;;;;;3.13;1.83;;;;;;;;;;5070922;28;20612;-78
2021/09/15 14:18:39;;;;;;;2.63;1.60;;;;;;;;;;5063612;28;20102;-79
2021/09/15 14:21:06;;;;;;;2.30;1.58;;;;;;;;;;5094998;28;20044;-78
2021/09/15 14:23:32;;;;;;;3.13;1.70;;;;;;;;;;5081954;28;20061;-78
2021/09/15 14:25:58;;;;;;;3.05;1.95;;;;;;;;;;5057243;28;20545;-79
2021/09/15 14:28:25;;;;;;;2.05;1.45;;;;;;;;;;5058539;28;20100;-78
2021/09/15 14:30:51;;;;;;;1.92;1.50;;;;;;;;;;5079382;28;20037;-80
2021/09/15 14:33:18;;;;;;;2.30;1.70;;;;;;;;;;5061528;28;20410;-79
2021/09/15 14:35:44;;;;;;;2.78;1.40;;;;;;;;;;5062366;28;20070;-79
2021/09/15 14:38:13;;;;;;;3.38;1.80;;;;;;;;;;5067390;28;20138;-78
2021/09/15 14:40:40;;;;;;;2.47;1.60;;;;;;;;;;5080670;28;20052;-79
2021/09/15 14:43:09;;;;;;;2.65;1.45;;;;;;;;;;5074480;28;20061;-78
2021/09/15 14:45:35;;;;;;;2.30;1.88;;;;;;;;;;5070805;28;20045;-78
2021/09/15 14:48:04;;;;;;;2.97;1.50;;;;;;;;;;5080487;28;20036;-81
2021/09/15 14:50:31;;;;;;;3.33;1.42;;;;;;;;;;5087449;28;20511;-78
2021/09/15 14:53:00;;;;;;;2.22;1.70;;;;;;;;;;5071831;28;20083;-79
2021/09/15 14:55:26;;;;;;;2.85;1.70;;;;;;;;;;5090742;28;20028;-78